sensor_id;sensor_type;location;lat;lon;timestamp;P1;durP1;ratioP1;P2;durP2;ratioP2
39448;SDS011;25151;45.566;9.382;2023-02-28T00:02:03;3.30;;;1.10;;
39448;SDS011;25151;45.566;9.382;2023-02-28T00:05:04;1.25;;;1.00;;
39448;SDS011;25151;45.566;9.382;2023-02-28T00:08:06;1.50;;;1.05;;
39448;SDS011;25151;45.566;9.382;2023-02-28T00:11:08;2.40;;;1.23;;
39448;SDS011;25151;45.566;9.382;2023-02-28T00:14:11;1.70;;;1.30;;
39448;SDS011;25151;45.566;9.382;2023-02-28T00:17:12;3.33;;;1.20;;
39448;SDS011;25151;45.566;9.382;2023-02-28T00:20:12;2.38;;;1.50;;
39448;SDS011;25151;45.566;9.382;2023-02-28T00:23:13;2.35;;;1.10;;
39448;SDS011;25151;45.566;9.382;2023-02-28T00:26:14;3.65;;;1.65;;
39448;SDS011;25151;45.566;9.382;2023-02-28T00:29:15;1.73;;;1.20;;
39448;SDS011;25151;45.566;9.382;2023-02-28T00:32:16;3.03;;;1.30;;
39448;SDS011;25151;45.566;9.382;2023-02-28T00:35:17;3.95;;;1.60;;
39448;SDS011;25151;45.566;9.382;2023-02-28T00:38:18;3.58;;;1.92;;
39448;SDS011;25151;45.566;9.382;2023-02-28T00:41:19;2.97;;;1.50;;
39448;SDS011;25151;45.566;9.382;2023-02-28T00:44:20;3.08;;;1.50;;
39448;SDS011;25151;45.566;9.382;2023-02-28T00:47:21;2.30;;;1.65;;
39448;SDS011;25151;45.566;9.382;2023-02-28T00:50:22;2.28;;;1.48;;
39448;SDS011;25151;45.566;9.382;2023-02-28T00:53:23;2.13;;;1.50;;
39448;SDS011;25151;45.566;9.382;2023-02-28T00:56:27;2.42;;;1.65;;
39448;SDS011;25151;45.566;9.382;2023-02-28T00:59:27;4.32;;;1.63;;
39448;SDS011;25151;45.566;9.382;2023-02-28T01:02:28;1.85;;;1.35;;
39448;SDS011;25151;45.566;9.382;2023-02-28T01:05:29;3.30;;;1.55;;
39448;SDS011;25151;45.566;9.382;2023-02-28T01:08:30;2.38;;;1.70;;
39448;SDS011;25151;45.566;9.382;2023-02-28T01:11:31;1.88;;;1.50;;
39448;SDS011;25151;45.566;9.382;2023-02-28T01:14:32;2.10;;;1.45;;
39448;SDS011;25151;45.566;9.382;2023-02-28T01:17:33;3.42;;;1.42;;
39448;SDS011;25151;45.566;9.382;2023-02-28T01:20:35;1.98;;;1.58;;
39448;SDS011;25151;45.566;9.382;2023-02-28T01:23:37;2.67;;;1.58;;
39448;SDS011;25151;45.566;9.382;2023-02-28T01:26:39;4.50;;;1.50;;
39448;SDS011;25151;45.566;9.382;2023-02-28T01:29:40;2.70;;;1.70;;
39448;SDS011;25151;45.566;9.382;2023-02-28T01:32:42;3.03;;;1.63;;
39448;SDS011;25151;45.566;9.382;2023-02-28T01:35:43;3.50;;;1.55;;
39448;SDS011;25151;45.566;9.382;2023-02-28T01:38:45;3.13;;;1.50;;
39448;SDS011;25151;45.566;9.382;2023-02-28T01:41:46;3.47;;;1.60;;
39448;SDS011;25151;45.566;9.382;2023-02-28T01:48:17;2.00;;;1.40;;
39448;SDS011;25151;45.566;9.382;2023-02-28T01:51:26;2.20;;;1.27;;
39448;SDS011;25151;45.566;9.382;2023-02-28T01:54:32;2.38;;;1.58;;
39448;SDS011;25151;45.566;9.382;2023-02-28T01:57:36;3.55;;;1.63;;
39448;SDS011;25151;45.566;9.382;2023-02-28T02:00:43;3.08;;;1.60;;
39448;SDS011;25151;45.566;9.382;2023-02-28T02:03:45;2.75;;;1.50;;
39448;SDS011;25151;45.566;9.382;2023-02-28T02:06:46;3.00;;;1.92;;
39448;SDS011;25151;45.566;9.382;2023-02-28T02:10:01;2.15;;;1.58;;
39448;SDS011;25151;45.566;9.382;2023-02-28T02:37:37;2.83;;;1.55;;
39448;SDS011;25151;45.566;9.382;2023-02-28T02:40:56;3.17;;;1.80;;
39448;SDS011;25151;45.566;9.382;2023-02-28T02:47:08;2.90;;;1.80;;
39448;SDS011;25151;45.566;9.382;2023-02-28T02:50:14;2.80;;;1.67;;
39448;SDS011;25151;45.566;9.382;2023-02-28T02:53:33;3.63;;;1.75;;
39448;SDS011;25151;45.566;9.382;2023-02-28T02:56:38;2.33;;;1.50;;
39448;SDS011;25151;45.566;9.382;2023-02-28T02:59:41;3.55;;;1.60;;
39448;SDS011;25151;45.566;9.382;2023-02-28T03:02:43;2.47;;;2.10;;
39448;SDS011;25151;45.566;9.382;2023-02-28T03:05:50;3.03;;;1.50;;
39448;SDS011;25151;45.566;9.382;2023-02-28T03:08:52;4.47;;;1.73;;
39448;SDS011;25151;45.566;9.382;2023-02-28T03:11:54;2.25;;;1.63;;
39448;SDS011;25151;45.566;9.382;2023-02-28T03:15:03;2.22;;;1.67;;
39448;SDS011;25151;45.566;9.382;2023-02-28T03:18:24;2.05;;;1.50;;
39448;SDS011;25151;45.566;9.382;2023-02-28T03:21:34;2.60;;;1.70;;
39448;SDS011;25151;45.566;9.382;2023-02-28T03:34:17;2.72;;;1.70;;
39448;SDS011;25151;45.566;9.382;2023-02-28T03:37:28;2.80;;;1.70;;
39448;SDS011;25151;45.566;9.382;2023-02-28T03:40:31;2.72;;;1.80;;
39448;SDS011;25151;45.566;9.382;2023-02-28T03:43:35;2.03;;;1.60;;
39448;SDS011;25151;45.566;9.382;2023-02-28T03:46:41;2.58;;;1.40;;
39448;SDS011;25151;45.566;9.382;2023-02-28T03:50:39;2.22;;;1.63;;
39448;SDS011;25151;45.566;9.382;2023-02-28T03:53:34;3.22;;;1.80;;
39448;SDS011;25151;45.566;9.382;2023-02-28T03:56:49;3.10;;;2.03;;
39448;SDS011;25151;45.566;9.382;2023-02-28T04:00:43;3.63;;;2.38;;
39448;SDS011;25151;45.566;9.382;2023-02-28T04:03:21;2.90;;;1.80;;
39448;SDS011;25151;45.566;9.382;2023-02-28T04:06:23;3.15;;;1.98;;
39448;SDS011;25151;45.566;9.382;2023-02-28T04:09:24;3.00;;;2.10;;
39448;SDS011;25151;45.566;9.382;2023-02-28T04:12:25;2.88;;;2.10;;
39448;SDS011;25151;45.566;9.382;2023-02-28T04:15:26;3.80;;;1.80;;
39448;SDS011;25151;45.566;9.382;2023-02-28T04:18:27;2.95;;;1.80;;
39448;SDS011;25151;45.566;9.382;2023-02-28T04:21:28;2.53;;;1.85;;
39448;SDS011;25151;45.566;9.382;2023-02-28T04:24:30;3.83;;;2.50;;
39448;SDS011;25151;45.566;9.382;2023-02-28T04:27:31;2.83;;;1.73;;
39448;SDS011;25151;45.566;9.382;2023-02-28T04:30:31;2.95;;;1.83;;
39448;SDS011;25151;45.566;9.382;2023-02-28T04:33:33;3.85;;;1.77;;
39448;SDS011;25151;45.566;9.382;2023-02-28T04:36:35;2.67;;;1.60;;
39448;SDS011;25151;45.566;9.382;2023-02-28T04:39:36;2.70;;;1.83;;
39448;SDS011;25151;45.566;9.382;2023-02-28T04:42:37;3.15;;;1.80;;
39448;SDS011;25151;45.566;9.382;2023-02-28T04:45:38;2.90;;;1.90;;
39448;SDS011;25151;45.566;9.382;2023-02-28T04:48:39;2.63;;;1.45;;
39448;SDS011;25151;45.566;9.382;2023-02-28T04:51:41;3.15;;;1.77;;
39448;SDS011;25151;45.566;9.382;2023-02-28T04:54:42;2.70;;;1.60;;
39448;SDS011;25151;45.566;9.382;2023-02-28T04:57:43;2.03;;;1.58;;
39448;SDS011;25151;45.566;9.382;2023-02-28T05:00:44;3.17;;;1.90;;
39448;SDS011;25151;45.566;9.382;2023-02-28T05:03:44;2.90;;;1.70;;
39448;SDS011;25151;45.566;9.382;2023-02-28T05:06:45;2.50;;;1.83;;
39448;SDS011;25151;45.566;9.382;2023-02-28T05:09:46;2.42;;;1.70;;
39448;SDS011;25151;45.566;9.382;2023-02-28T05:12:47;2.30;;;1.58;;
39448;SDS011;25151;45.566;9.382;2023-02-28T05:15:48;3.00;;;2.20;;
39448;SDS011;25151;45.566;9.382;2023-02-28T05:18:49;2.50;;;1.88;;
39448;SDS011;25151;45.566;9.382;2023-02-28T05:21:51;2.75;;;2.03;;
39448;SDS011;25151;45.566;9.382;2023-02-28T05:24:53;2.40;;;1.50;;
39448;SDS011;25151;45.566;9.382;2023-02-28T05:27:54;3.03;;;1.90;;
39448;SDS011;25151;45.566;9.382;2023-02-28T05:30:55;2.05;;;1.60;;
39448;SDS011;25151;45.566;9.382;2023-02-28T05:33:56;4.05;;;1.70;;
39448;SDS011;25151;45.566;9.382;2023-02-28T05:36:58;2.78;;;2.00;;
39448;SDS011;25151;45.566;9.382;2023-02-28T05:39:59;3.63;;;1.90;;
39448;SDS011;25151;45.566;9.382;2023-02-28T05:43:00;1.95;;;1.63;;
39448;SDS011;25151;45.566;9.382;2023-02-28T05:46:02;2.85;;;2.08;;
39448;SDS011;25151;45.566;9.382;2023-02-28T05:49:05;3.20;;;1.90;;
39448;SDS011;25151;45.566;9.382;2023-02-28T05:52:06;2.53;;;1.90;;
39448;SDS011;25151;45.566;9.382;2023-02-28T05:55:07;2.67;;;2.10;;
39448;SDS011;25151;45.566;9.382;2023-02-28T05:58:09;2.15;;;1.60;;
39448;SDS011;25151;45.566;9.382;2023-02-28T06:01:23;1.77;;;1.50;;
39448;SDS011;25151;45.566;9.382;2023-02-28T06:04:38;3.13;;;1.77;;
39448;SDS011;25151;45.566;9.382;2023-02-28T06:07:42;2.85;;;1.73;;
39448;SDS011;25151;45.566;9.382;2023-02-28T06:10:44;2.22;;;1.80;;
39448;SDS011;25151;45.566;9.382;2023-02-28T06:13:45;2.42;;;1.52;;
39448;SDS011;25151;45.566;9.382;2023-02-28T06:16:46;2.72;;;2.10;;
39448;SDS011;25151;45.566;9.382;2023-02-28T06:19:46;2.55;;;2.25;;
39448;SDS011;25151;45.566;9.382;2023-02-28T06:22:48;3.13;;;1.63;;
39448;SDS011;25151;45.566;9.382;2023-02-28T06:25:51;2.55;;;2.15;;
39448;SDS011;25151;45.566;9.382;2023-02-28T06:28:53;2.85;;;1.90;;
39448;SDS011;25151;45.566;9.382;2023-02-28T06:31:54;2.55;;;1.90;;
39448;SDS011;25151;45.566;9.382;2023-02-28T06:34:55;1.90;;;1.65;;
39448;SDS011;25151;45.566;9.382;2023-02-28T06:37:57;2.38;;;1.92;;
39448;SDS011;25151;45.566;9.382;2023-02-28T06:40:58;2.60;;;1.98;;
39448;SDS011;25151;45.566;9.382;2023-02-28T06:44:00;3.40;;;2.10;;
39448;SDS011;25151;45.566;9.382;2023-02-28T06:47:02;2.95;;;2.10;;
39448;SDS011;25151;45.566;9.382;2023-02-28T06:50:04;2.20;;;1.85;;
39448;SDS011;25151;45.566;9.382;2023-02-28T06:53:06;2.78;;;2.15;;
39448;SDS011;25151;45.566;9.382;2023-02-28T06:56:07;3.28;;;2.40;;
39448;SDS011;25151;45.566;9.382;2023-02-28T06:59:10;1.95;;;1.63;;
39448;SDS011;25151;45.566;9.382;2023-02-28T07:02:10;3.05;;;2.15;;
39448;SDS011;25151;45.566;9.382;2023-02-28T07:05:11;2.45;;;2.03;;
39448;SDS011;25151;45.566;9.382;2023-02-28T07:08:12;3.22;;;1.98;;
39448;SDS011;25151;45.566;9.382;2023-02-28T07:11:13;2.83;;;1.60;;
39448;SDS011;25151;45.566;9.382;2023-02-28T07:14:13;3.42;;;2.15;;
39448;SDS011;25151;45.566;9.382;2023-02-28T07:17:14;4.75;;;1.98;;
39448;SDS011;25151;45.566;9.382;2023-02-28T07:20:15;2.75;;;2.17;;
39448;SDS011;25151;45.566;9.382;2023-02-28T07:23:16;2.67;;;1.80;;
39448;SDS011;25151;45.566;9.382;2023-02-28T07:26:17;3.22;;;2.00;;
39448;SDS011;25151;45.566;9.382;2023-02-28T07:29:19;2.97;;;2.00;;
39448;SDS011;25151;45.566;9.382;2023-02-28T07:32:20;4.70;;;2.50;;
39448;SDS011;25151;45.566;9.382;2023-02-28T07:35:23;2.28;;;1.90;;
39448;SDS011;25151;45.566;9.382;2023-02-28T07:38:24;2.67;;;2.13;;
39448;SDS011;25151;45.566;9.382;2023-02-28T07:41:25;3.22;;;1.98;;
39448;SDS011;25151;45.566;9.382;2023-02-28T07:44:27;3.65;;;2.10;;
39448;SDS011;25151;45.566;9.382;2023-02-28T07:47:29;2.95;;;1.75;;
39448;SDS011;25151;45.566;9.382;2023-02-28T07:50:31;3.83;;;2.00;;
39448;SDS011;25151;45.566;9.382;2023-02-28T07:53:32;5.13;;;1.98;;
39448;SDS011;25151;45.566;9.382;2023-02-28T07:56:33;7.05;;;2.00;;
39448;SDS011;25151;45.566;9.382;2023-02-28T07:59:34;2.83;;;2.05;;
39448;SDS011;25151;45.566;9.382;2023-02-28T08:02:35;2.95;;;2.08;;
39448;SDS011;25151;45.566;9.382;2023-02-28T08:05:38;1.92;;;1.60;;
39448;SDS011;25151;45.566;9.382;2023-02-28T08:08:40;5.40;;;2.17;;
39448;SDS011;25151;45.566;9.382;2023-02-28T08:11:41;3.70;;;1.75;;
39448;SDS011;25151;45.566;9.382;2023-02-28T08:14:41;2.97;;;1.80;;
39448;SDS011;25151;45.566;9.382;2023-02-28T08:17:42;4.63;;;1.80;;
39448;SDS011;25151;45.566;9.382;2023-02-28T08:20:43;3.63;;;1.75;;
39448;SDS011;25151;45.566;9.382;2023-02-28T08:23:43;2.40;;;1.65;;
39448;SDS011;25151;45.566;9.382;2023-02-28T08:26:46;2.58;;;2.03;;
39448;SDS011;25151;45.566;9.382;2023-02-28T08:29:47;3.50;;;1.98;;
39448;SDS011;25151;45.566;9.382;2023-02-28T08:32:47;15.18;;;2.83;;
39448;SDS011;25151;45.566;9.382;2023-02-28T08:35:48;3.88;;;2.33;;
39448;SDS011;25151;45.566;9.382;2023-02-28T08:38:49;4.07;;;1.70;;
39448;SDS011;25151;45.566;9.382;2023-02-28T08:41:49;4.97;;;2.38;;
39448;SDS011;25151;45.566;9.382;2023-02-28T08:44:50;6.43;;;2.03;;
39448;SDS011;25151;45.566;9.382;2023-02-28T08:47:51;4.15;;;2.17;;
39448;SDS011;25151;45.566;9.382;2023-02-28T08:51:01;5.53;;;2.20;;
39448;SDS011;25151;45.566;9.382;2023-02-28T08:54:04;5.20;;;1.77;;
39448;SDS011;25151;45.566;9.382;2023-02-28T08:57:05;2.28;;;1.55;;
39448;SDS011;25151;45.566;9.382;2023-02-28T09:00:06;5.75;;;2.22;;
39448;SDS011;25151;45.566;9.382;2023-02-28T09:03:08;4.10;;;1.98;;
39448;SDS011;25151;45.566;9.382;2023-02-28T09:06:09;4.88;;;1.92;;
39448;SDS011;25151;45.566;9.382;2023-02-28T09:09:10;4.32;;;2.22;;
39448;SDS011;25151;45.566;9.382;2023-02-28T09:12:11;2.67;;;1.92;;
39448;SDS011;25151;45.566;9.382;2023-02-28T09:15:11;5.43;;;1.95;;
39448;SDS011;25151;45.566;9.382;2023-02-28T09:18:12;4.78;;;2.42;;
39448;SDS011;25151;45.566;9.382;2023-02-28T09:21:14;4.78;;;2.17;;
39448;SDS011;25151;45.566;9.382;2023-02-28T09:24:16;3.45;;;2.08;;
39448;SDS011;25151;45.566;9.382;2023-02-28T09:27:18;3.88;;;2.13;;
39448;SDS011;25151;45.566;9.382;2023-02-28T09:30:19;3.92;;;2.30;;
39448;SDS011;25151;45.566;9.382;2023-02-28T09:33:20;7.40;;;2.20;;
39448;SDS011;25151;45.566;9.382;2023-02-28T09:36:23;5.75;;;1.95;;
39448;SDS011;25151;45.566;9.382;2023-02-28T09:39:24;3.05;;;1.77;;
39448;SDS011;25151;45.566;9.382;2023-02-28T09:42:33;6.63;;;2.10;;
39448;SDS011;25151;45.566;9.382;2023-02-28T09:45:39;8.27;;;2.50;;
39448;SDS011;25151;45.566;9.382;2023-02-28T09:48:44;8.57;;;2.50;;
39448;SDS011;25151;45.566;9.382;2023-02-28T09:51:55;8.55;;;2.67;;
39448;SDS011;25151;45.566;9.382;2023-02-28T09:55:01;6.35;;;2.30;;
39448;SDS011;25151;45.566;9.382;2023-02-28T09:58:40;11.57;;;3.47;;
39448;SDS011;25151;45.566;9.382;2023-02-28T10:08:16;13.70;;;3.67;;
39448;SDS011;25151;45.566;9.382;2023-02-28T10:11:25;10.25;;;3.53;;
39448;SDS011;25151;45.566;9.382;2023-02-28T10:14:28;12.55;;;3.53;;
39448;SDS011;25151;45.566;9.382;2023-02-28T10:17:38;11.40;;;3.20;;
39448;SDS011;25151;45.566;9.382;2023-02-28T10:20:41;7.88;;;3.13;;
39448;SDS011;25151;45.566;9.382;2023-02-28T10:23:43;13.23;;;3.70;;
39448;SDS011;25151;45.566;9.382;2023-02-28T10:26:48;6.97;;;3.47;;
39448;SDS011;25151;45.566;9.382;2023-02-28T10:29:53;8.90;;;3.88;;
39448;SDS011;25151;45.566;9.382;2023-02-28T10:32:59;10.00;;;3.80;;
39448;SDS011;25151;45.566;9.382;2023-02-28T10:36:00;8.15;;;3.40;;
39448;SDS011;25151;45.566;9.382;2023-02-28T10:39:21;14.25;;;4.00;;
39448;SDS011;25151;45.566;9.382;2023-02-28T10:42:37;9.90;;;4.05;;
39448;SDS011;25151;45.566;9.382;2023-02-28T10:45:39;7.40;;;2.92;;
39448;SDS011;25151;45.566;9.382;2023-02-28T10:49:03;12.45;;;3.50;;
39448;SDS011;25151;45.566;9.382;2023-02-28T10:52:07;6.20;;;3.22;;
39448;SDS011;25151;45.566;9.382;2023-02-28T10:55:20;9.40;;;3.25;;
39448;SDS011;25151;45.566;9.382;2023-02-28T10:58:23;9.40;;;3.20;;
39448;SDS011;25151;45.566;9.382;2023-02-28T11:07:40;12.35;;;3.72;;
39448;SDS011;25151;45.566;9.382;2023-02-28T11:11:14;13.80;;;3.42;;
39448;SDS011;25151;45.566;9.382;2023-02-28T11:14:17;9.35;;;3.80;;
39448;SDS011;25151;45.566;9.382;2023-02-28T11:17:28;10.43;;;2.95;;
39448;SDS011;25151;45.566;9.382;2023-02-28T11:20:32;11.98;;;3.20;;
39448;SDS011;25151;45.566;9.382;2023-02-28T11:23:35;13.55;;;3.58;;
39448;SDS011;25151;45.566;9.382;2023-02-28T11:26:45;8.98;;;3.20;;
39448;SDS011;25151;45.566;9.382;2023-02-28T11:29:48;6.90;;;2.97;;
39448;SDS011;25151;45.566;9.382;2023-02-28T11:32:50;7.25;;;3.70;;
39448;SDS011;25151;45.566;9.382;2023-02-28T11:35:51;9.52;;;3.05;;
39448;SDS011;25151;45.566;9.382;2023-02-28T11:38:57;10.73;;;3.20;;
39448;SDS011;25151;45.566;9.382;2023-02-28T11:42:05;6.85;;;2.70;;
39448;SDS011;25151;45.566;9.382;2023-02-28T11:48:30;9.20;;;3.33;;
39448;SDS011;25151;45.566;9.382;2023-02-28T11:51:48;6.20;;;2.95;;
39448;SDS011;25151;45.566;9.382;2023-02-28T12:01:54;6.60;;;3.20;;
39448;SDS011;25151;45.566;9.382;2023-02-28T12:05:55;6.25;;;2.90;;
39448;SDS011;25151;45.566;9.382;2023-02-28T12:08:53;7.45;;;2.70;;
39448;SDS011;25151;45.566;9.382;2023-02-28T12:18:53;8.38;;;2.78;;
39448;SDS011;25151;45.566;9.382;2023-02-28T12:22:19;5.85;;;2.70;;
39448;SDS011;25151;45.566;9.382;2023-02-28T12:28:49;6.38;;;2.50;;
39448;SDS011;25151;45.566;9.382;2023-02-28T12:31:55;7.32;;;2.90;;
39448;SDS011;25151;45.566;9.382;2023-02-28T12:35:21;6.57;;;2.83;;
39448;SDS011;25151;45.566;9.382;2023-02-28T12:48:05;10.95;;;2.85;;
39448;SDS011;25151;45.566;9.382;2023-02-28T12:51:13;5.03;;;2.40;;
39448;SDS011;25151;45.566;9.382;2023-02-28T12:54:19;4.10;;;2.42;;
39448;SDS011;25151;45.566;9.382;2023-02-28T13:04:39;9.05;;;3.05;;
39448;SDS011;25151;45.566;9.382;2023-02-28T13:11:02;7.15;;;2.85;;
39448;SDS011;25151;45.566;9.382;2023-02-28T13:14:05;5.15;;;2.15;;
39448;SDS011;25151;45.566;9.382;2023-02-28T13:17:23;4.15;;;2.63;;
39448;SDS011;25151;45.566;9.382;2023-02-28T13:23:37;9.57;;;2.70;;
39448;SDS011;25151;45.566;9.382;2023-02-28T13:29:42;5.22;;;2.30;;
39448;SDS011;25151;45.566;9.382;2023-02-28T13:32:44;6.05;;;2.95;;
39448;SDS011;25151;45.566;9.382;2023-02-28T13:35:45;8.65;;;2.80;;
39448;SDS011;25151;45.566;9.382;2023-02-28T13:38:48;8.70;;;2.85;;
39448;SDS011;25151;45.566;9.382;2023-02-28T13:42:22;6.82;;;2.63;;
39448;SDS011;25151;45.566;9.382;2023-02-28T13:45:40;5.25;;;2.40;;
39448;SDS011;25151;45.566;9.382;2023-02-28T13:49:31;7.65;;;3.05;;
39448;SDS011;25151;45.566;9.382;2023-02-28T13:52:37;10.27;;;2.35;;
39448;SDS011;25151;45.566;9.382;2023-02-28T13:59:18;6.28;;;2.60;;
39448;SDS011;25151;45.566;9.382;2023-02-28T14:06:15;5.57;;;2.45;;
39448;SDS011;25151;45.566;9.382;2023-02-28T14:09:21;4.63;;;2.40;;
39448;SDS011;25151;45.566;9.382;2023-02-28T14:16:01;5.20;;;2.63;;
39448;SDS011;25151;45.566;9.382;2023-02-28T14:32:44;3.75;;;2.40;;
39448;SDS011;25151;45.566;9.382;2023-02-28T14:38:59;3.75;;;2.35;;
39448;SDS011;25151;45.566;9.382;2023-02-28T14:42:25;5.30;;;2.63;;
39448;SDS011;25151;45.566;9.382;2023-02-28T14:45:35;4.63;;;2.55;;
39448;SDS011;25151;45.566;9.382;2023-02-28T14:48:38;7.95;;;2.40;;
39448;SDS011;25151;45.566;9.382;2023-02-28T14:51:40;5.97;;;2.65;;
39448;SDS011;25151;45.566;9.382;2023-02-28T14:54:42;4.68;;;2.30;;
39448;SDS011;25151;45.566;9.382;2023-02-28T14:57:59;5.70;;;2.70;;
39448;SDS011;25151;45.566;9.382;2023-02-28T15:01:09;3.65;;;2.42;;
39448;SDS011;25151;45.566;9.382;2023-02-28T15:04:24;4.22;;;2.80;;
39448;SDS011;25151;45.566;9.382;2023-02-28T15:07:28;4.90;;;2.22;;
39448;SDS011;25151;45.566;9.382;2023-02-28T15:10:28;4.85;;;1.85;;
39448;SDS011;25151;45.566;9.382;2023-02-28T15:13:40;6.75;;;2.30;;
39448;SDS011;25151;45.566;9.382;2023-02-28T15:16:44;5.13;;;2.50;;
39448;SDS011;25151;45.566;9.382;2023-02-28T15:19:50;3.97;;;1.77;;
39448;SDS011;25151;45.566;9.382;2023-02-28T15:22:53;4.70;;;2.63;;
39448;SDS011;25151;45.566;9.382;2023-02-28T15:25:55;4.43;;;2.50;;
39448;SDS011;25151;45.566;9.382;2023-02-28T15:28:58;3.97;;;2.50;;
39448;SDS011;25151;45.566;9.382;2023-02-28T15:32:02;3.30;;;2.17;;
39448;SDS011;25151;45.566;9.382;2023-02-28T15:35:19;8.43;;;2.47;;
39448;SDS011;25151;45.566;9.382;2023-02-28T15:38:32;4.25;;;2.38;;
39448;SDS011;25151;45.566;9.382;2023-02-28T15:41:36;8.13;;;2.50;;
39448;SDS011;25151;45.566;9.382;2023-02-28T15:44:41;6.03;;;2.25;;
39448;SDS011;25151;45.566;9.382;2023-02-28T15:47:44;6.28;;;2.35;;
39448;SDS011;25151;45.566;9.382;2023-02-28T15:50:51;3.38;;;2.33;;
39448;SDS011;25151;45.566;9.382;2023-02-28T15:54:00;3.65;;;2.30;;
39448;SDS011;25151;45.566;9.382;2023-02-28T15:57:04;4.53;;;2.15;;
39448;SDS011;25151;45.566;9.382;2023-02-28T16:00:11;6.53;;;2.55;;
39448;SDS011;25151;45.566;9.382;2023-02-28T16:03:26;7.10;;;2.30;;
39448;SDS011;25151;45.566;9.382;2023-02-28T16:09:59;3.13;;;2.03;;
39448;SDS011;25151;45.566;9.382;2023-02-28T16:13:01;3.70;;;2.40;;
39448;SDS011;25151;45.566;9.382;2023-02-28T16:16:02;3.13;;;2.17;;
39448;SDS011;25151;45.566;9.382;2023-02-28T16:19:03;4.60;;;1.90;;
39448;SDS011;25151;45.566;9.382;2023-02-28T16:22:04;4.93;;;2.35;;
39448;SDS011;25151;45.566;9.382;2023-02-28T16:25:05;5.50;;;2.08;;
39448;SDS011;25151;45.566;9.382;2023-02-28T16:28:09;6.20;;;1.98;;
39448;SDS011;25151;45.566;9.382;2023-02-28T16:31:18;3.77;;;2.20;;
39448;SDS011;25151;45.566;9.382;2023-02-28T16:34:19;2.70;;;1.80;;
39448;SDS011;25151;45.566;9.382;2023-02-28T16:37:20;2.88;;;2.00;;
39448;SDS011;25151;45.566;9.382;2023-02-28T16:40:21;3.03;;;2.00;;
39448;SDS011;25151;45.566;9.382;2023-02-28T16:43:25;6.57;;;2.40;;
39448;SDS011;25151;45.566;9.382;2023-02-28T16:46:27;3.75;;;2.20;;
39448;SDS011;25151;45.566;9.382;2023-02-28T16:49:33;3.88;;;2.15;;
39448;SDS011;25151;45.566;9.382;2023-02-28T16:52:34;3.05;;;2.00;;
39448;SDS011;25151;45.566;9.382;2023-02-28T16:55:34;3.55;;;1.80;;
39448;SDS011;25151;45.566;9.382;2023-02-28T16:58:35;2.90;;;2.00;;
39448;SDS011;25151;45.566;9.382;2023-02-28T17:01:36;3.58;;;2.30;;
39448;SDS011;25151;45.566;9.382;2023-02-28T17:04:37;3.45;;;2.30;;
39448;SDS011;25151;45.566;9.382;2023-02-28T17:07:38;3.10;;;2.20;;
39448;SDS011;25151;45.566;9.382;2023-02-28T17:10:39;3.45;;;1.98;;
39448;SDS011;25151;45.566;9.382;2023-02-28T17:13:40;4.43;;;2.53;;
39448;SDS011;25151;45.566;9.382;2023-02-28T17:16:41;3.42;;;2.28;;
39448;SDS011;25151;45.566;9.382;2023-02-28T17:19:43;3.55;;;2.63;;
39448;SDS011;25151;45.566;9.382;2023-02-28T17:22:45;3.88;;;2.38;;
39448;SDS011;25151;45.566;9.382;2023-02-28T17:25:46;5.68;;;2.30;;
39448;SDS011;25151;45.566;9.382;2023-02-28T17:28:54;2.75;;;1.83;;
39448;SDS011;25151;45.566;9.382;2023-02-28T17:31:57;4.15;;;2.20;;
39448;SDS011;25151;45.566;9.382;2023-02-28T17:34:58;2.42;;;1.75;;
39448;SDS011;25151;45.566;9.382;2023-02-28T17:38:00;3.47;;;2.28;;
39448;SDS011;25151;45.566;9.382;2023-02-28T17:41:01;3.08;;;2.35;;
39448;SDS011;25151;45.566;9.382;2023-02-28T17:44:05;2.88;;;1.83;;
39448;SDS011;25151;45.566;9.382;2023-02-28T17:47:09;6.68;;;1.98;;
39448;SDS011;25151;45.566;9.382;2023-02-28T17:50:14;3.83;;;2.00;;
39448;SDS011;25151;45.566;9.382;2023-02-28T17:53:17;3.90;;;1.90;;
39448;SDS011;25151;45.566;9.382;2023-02-28T17:56:22;3.08;;;2.17;;
39448;SDS011;25151;45.566;9.382;2023-02-28T17:59:25;2.00;;;1.80;;
39448;SDS011;25151;45.566;9.382;2023-02-28T18:02:33;3.45;;;2.08;;
39448;SDS011;25151;45.566;9.382;2023-02-28T18:05:35;3.03;;;1.65;;
39448;SDS011;25151;45.566;9.382;2023-02-28T18:08:37;4.03;;;2.03;;
39448;SDS011;25151;45.566;9.382;2023-02-28T18:11:41;2.58;;;1.98;;
39448;SDS011;25151;45.566;9.382;2023-02-28T18:14:44;3.55;;;2.00;;
39448;SDS011;25151;45.566;9.382;2023-02-28T18:17:48;3.25;;;1.70;;
39448;SDS011;25151;45.566;9.382;2023-02-28T18:20:49;3.45;;;2.10;;
39448;SDS011;25151;45.566;9.382;2023-02-28T18:23:52;5.05;;;1.63;;
39448;SDS011;25151;45.566;9.382;2023-02-28T18:26:53;3.05;;;2.00;;
39448;SDS011;25151;45.566;9.382;2023-02-28T18:29:54;2.70;;;2.03;;
39448;SDS011;25151;45.566;9.382;2023-02-28T18:32:56;3.58;;;1.88;;
39448;SDS011;25151;45.566;9.382;2023-02-28T18:35:58;3.72;;;1.83;;
39448;SDS011;25151;45.566;9.382;2023-02-28T18:38:59;3.47;;;2.13;;
39448;SDS011;25151;45.566;9.382;2023-02-28T18:42:01;2.67;;;2.00;;
39448;SDS011;25151;45.566;9.382;2023-02-28T18:45:02;2.78;;;1.75;;
39448;SDS011;25151;45.566;9.382;2023-02-28T18:48:03;2.75;;;2.33;;
39448;SDS011;25151;45.566;9.382;2023-02-28T18:51:11;3.30;;;1.98;;
39448;SDS011;25151;45.566;9.382;2023-02-28T18:54:14;2.72;;;1.95;;
39448;SDS011;25151;45.566;9.382;2023-02-28T18:57:16;3.65;;;2.10;;
39448;SDS011;25151;45.566;9.382;2023-02-28T19:00:17;3.90;;;2.38;;
39448;SDS011;25151;45.566;9.382;2023-02-28T19:03:21;5.70;;;2.05;;
39448;SDS011;25151;45.566;9.382;2023-02-28T19:06:23;5.15;;;2.08;;
39448;SDS011;25151;45.566;9.382;2023-02-28T19:09:24;2.78;;;2.00;;
39448;SDS011;25151;45.566;9.382;2023-02-28T19:12:25;4.03;;;1.98;;
39448;SDS011;25151;45.566;9.382;2023-02-28T19:15:27;3.13;;;2.10;;
39448;SDS011;25151;45.566;9.382;2023-02-28T19:18:28;4.15;;;2.03;;
39448;SDS011;25151;45.566;9.382;2023-02-28T19:21:30;3.15;;;1.92;;
39448;SDS011;25151;45.566;9.382;2023-02-28T19:24:31;2.95;;;1.90;;
39448;SDS011;25151;45.566;9.382;2023-02-28T19:27:33;6.95;;;2.47;;
39448;SDS011;25151;45.566;9.382;2023-02-28T19:30:36;4.88;;;2.20;;
39448;SDS011;25151;45.566;9.382;2023-02-28T19:33:37;3.20;;;2.20;;
39448;SDS011;25151;45.566;9.382;2023-02-28T19:36:39;2.90;;;1.83;;
39448;SDS011;25151;45.566;9.382;2023-02-28T19:39:44;5.18;;;2.08;;
39448;SDS011;25151;45.566;9.382;2023-02-28T19:42:46;4.13;;;2.13;;
39448;SDS011;25151;45.566;9.382;2023-02-28T19:45:48;4.25;;;2.28;;
39448;SDS011;25151;45.566;9.382;2023-02-28T19:48:52;5.70;;;2.33;;
39448;SDS011;25151;45.566;9.382;2023-02-28T19:51:54;3.38;;;2.20;;
39448;SDS011;25151;45.566;9.382;2023-02-28T19:54:57;2.90;;;2.00;;
39448;SDS011;25151;45.566;9.382;2023-02-28T19:57:58;3.78;;;2.22;;
39448;SDS011;25151;45.566;9.382;2023-02-28T20:01:09;6.93;;;2.25;;
39448;SDS011;25151;45.566;9.382;2023-02-28T20:04:13;3.05;;;2.15;;
39448;SDS011;25151;45.566;9.382;2023-02-28T20:07:17;3.92;;;1.80;;
39448;SDS011;25151;45.566;9.382;2023-02-28T20:10:22;2.67;;;2.22;;
39448;SDS011;25151;45.566;9.382;2023-02-28T20:13:24;4.40;;;2.50;;
39448;SDS011;25151;45.566;9.382;2023-02-28T20:16:26;5.80;;;2.28;;
39448;SDS011;25151;45.566;9.382;2023-02-28T20:19:32;3.28;;;2.38;;
39448;SDS011;25151;45.566;9.382;2023-02-28T20:22:33;3.00;;;2.00;;
39448;SDS011;25151;45.566;9.382;2023-02-28T20:25:37;3.83;;;2.10;;
39448;SDS011;25151;45.566;9.382;2023-02-28T20:28:40;5.43;;;1.95;;
39448;SDS011;25151;45.566;9.382;2023-02-28T20:31:43;2.83;;;2.30;;
39448;SDS011;25151;45.566;9.382;2023-02-28T20:34:44;2.90;;;2.03;;
39448;SDS011;25151;45.566;9.382;2023-02-28T20:37:45;3.83;;;2.28;;
39448;SDS011;25151;45.566;9.382;2023-02-28T20:40:47;3.25;;;2.20;;
39448;SDS011;25151;45.566;9.382;2023-02-28T20:43:52;5.72;;;2.20;;